createdAt,value
2023-05-11T00:00:03.941Z,16.30
2023-05-11T00:02:33.980Z,16.60
2023-05-11T00:05:02.809Z,17.57
2023-05-11T00:07:31.512Z,16.73
2023-05-11T00:10:01.290Z,16.17
2023-05-11T00:12:29.819Z,17.80
2023-05-11T00:14:58.322Z,17.70
2023-05-11T00:17:26.903Z,17.20
2023-05-11T00:19:55.684Z,17.47
2023-05-11T00:22:24.219Z,18.10
2023-05-11T00:24:52.955Z,19.57
2023-05-11T00:27:22.802Z,19.03
2023-05-11T00:29:51.472Z,17.83
2023-05-11T00:32:20.112Z,19.90
2023-05-11T00:34:49.724Z,17.77
2023-05-11T00:37:18.378Z,18.03
2023-05-11T00:39:47.109Z,16.67
2023-05-11T00:42:16.095Z,16.33
2023-05-11T00:44:46.030Z,18.57
2023-05-11T00:47:14.754Z,17.40
2023-05-11T00:49:43.976Z,17.07
2023-05-11T00:52:12.888Z,17.57
2023-05-11T00:54:42.037Z,17.10
2023-05-11T00:57:10.866Z,16.70
2023-05-11T00:59:39.670Z,16.47
2023-05-11T01:02:09.846Z,16.87
2023-05-11T01:04:38.924Z,15.90
2023-05-11T01:07:11.794Z,17.00
2023-05-11T01:09:48.238Z,16.53
2023-05-11T01:12:23.931Z,16.33
2023-05-11T01:14:59.558Z,16.43
2023-05-11T01:17:39.290Z,16.37
2023-05-11T01:20:10.222Z,16.47
2023-05-11T01:22:47.936Z,17.17
2023-05-11T01:25:34.026Z,17.57
2023-05-11T01:28:27.546Z,17.87
2023-05-11T01:30:59.508Z,17.80
2023-05-11T01:33:33.417Z,16.93
2023-05-11T01:36:05.568Z,17.03
2023-05-11T01:38:36.274Z,19.00
2023-05-11T01:41:11.437Z,19.00
2023-05-11T01:43:41.772Z,19.83
2023-05-11T01:46:12.845Z,20.43
2023-05-11T01:48:44.002Z,21.30
2023-05-11T01:51:12.440Z,20.57
2023-05-11T01:53:41.881Z,19.50
2023-05-11T01:56:11.426Z,19.83
2023-05-11T01:58:42.433Z,20.77
2023-05-11T02:01:12.847Z,21.13
2023-05-11T02:03:43.131Z,20.20
2023-05-11T02:06:12.106Z,22.17
2023-05-11T02:08:41.072Z,21.60
2023-05-11T02:11:11.447Z,21.87
2023-05-11T02:13:44.223Z,22.07
2023-05-11T02:16:15.408Z,22.17
2023-05-11T02:18:44.741Z,22.13
2023-05-11T02:21:13.835Z,22.40
2023-05-11T02:23:43.255Z,21.97
2023-05-11T02:26:12.645Z,24.33
2023-05-11T02:28:41.420Z,21.80
2023-05-11T02:31:14.044Z,22.40
2023-05-11T02:33:51.549Z,21.93
2023-05-11T02:36:23.578Z,24.03
2023-05-11T02:38:59.004Z,22.03
2023-05-11T02:41:29.195Z,22.50
2023-05-11T02:44:01.473Z,24.17
2023-05-11T02:46:35.017Z,21.60
2023-05-11T02:49:07.165Z,21.67
2023-05-11T02:51:38.098Z,22.50
2023-05-11T02:54:08.402Z,22.33
2023-05-11T02:56:39.936Z,21.63
2023-05-11T02:59:08.719Z,21.33
2023-05-11T03:01:40.741Z,22.67
2023-05-11T03:04:09.401Z,23.03
2023-05-11T03:06:38.629Z,23.20
2023-05-11T03:09:10.295Z,22.33
2023-05-11T03:11:44.318Z,22.30
2023-05-11T03:14:14.023Z,20.97
2023-05-11T03:16:45.664Z,22.00
2023-05-11T03:19:14.647Z,20.87
2023-05-11T03:21:43.537Z,21.77
2023-05-11T03:24:12.577Z,20.53
2023-05-11T03:26:41.351Z,19.43
2023-05-11T03:29:10.927Z,20.17
2023-05-11T03:31:40.120Z,21.13
2023-05-11T03:34:10.517Z,19.80
2023-05-11T03:36:44.059Z,19.67
2023-05-11T03:39:13.287Z,19.77
2023-05-11T03:41:42.599Z,19.20
2023-05-11T03:44:13.513Z,19.30
2023-05-11T03:46:45.505Z,19.67
2023-05-11T03:49:17.581Z,18.93
2023-05-11T03:51:46.667Z,18.13
2023-05-11T03:54:15.960Z,20.07
2023-05-11T03:56:44.700Z,18.60
2023-05-11T03:59:16.487Z,18.37
2023-05-11T04:01:45.771Z,18.87
2023-05-11T04:04:14.513Z,18.50
2023-05-11T04:06:44.687Z,18.03
2023-05-11T04:09:19.783Z,20.13
2023-05-11T04:11:48.285Z,18.13
2023-05-11T04:14:17.601Z,17.97
2023-05-11T04:16:46.254Z,16.60
2023-05-11T04:19:16.426Z,18.67
2023-05-11T04:21:46.834Z,17.03
2023-05-11T04:24:15.788Z,17.53
2023-05-11T04:26:44.232Z,16.50
2023-05-11T04:29:12.935Z,16.23
2023-05-11T04:31:41.583Z,15.33
2023-05-11T04:34:11.488Z,14.93
2023-05-11T04:36:40.505Z,14.13
2023-05-11T04:39:10.635Z,14.50
2023-05-11T04:41:40.697Z,13.93
2023-05-11T04:44:10.246Z,13.73
2023-05-11T04:46:39.649Z,14.37
2023-05-11T04:49:09.517Z,13.53
2023-05-11T04:51:40.583Z,14.00
2023-05-11T04:54:12.016Z,14.07
2023-05-11T04:56:41.174Z,13.33
2023-05-11T04:59:10.723Z,13.83
2023-05-11T05:01:39.442Z,14.40
2023-05-11T05:04:08.736Z,13.90
2023-05-11T05:06:38.463Z,13.37
2023-05-11T05:09:07.125Z,12.63
2023-05-11T05:11:37.887Z,12.90
2023-05-11T05:14:06.447Z,13.87
2023-05-11T05:16:35.208Z,12.67
2023-05-11T05:19:04.261Z,12.77
2023-05-11T05:21:35.925Z,13.87
2023-05-11T05:24:06.884Z,13.40
2023-05-11T05:26:35.534Z,13.20
2023-05-11T05:29:06.971Z,13.20
2023-05-11T05:31:36.603Z,13.03
2023-05-11T05:34:05.156Z,13.97
2023-05-11T05:36:33.750Z,13.80
2023-05-11T05:39:03.846Z,13.57
2023-05-11T05:41:33.276Z,13.10
2023-05-11T05:44:02.765Z,13.63
2023-05-11T05:46:33.322Z,12.27
2023-05-11T05:49:02.405Z,12.83
2023-05-11T05:51:32.830Z,13.07
2023-05-11T05:54:01.494Z,12.77
2023-05-11T05:56:30.104Z,13.57
2023-05-11T05:58:58.768Z,12.53
2023-05-11T06:01:27.388Z,11.27
2023-05-11T06:03:58.089Z,10.07
2023-05-11T06:06:27.497Z,11.07
2023-05-11T06:08:56.031Z,9.37
2023-05-11T06:11:25.023Z,10.40
2023-05-11T06:13:53.749Z,9.45
2023-05-11T06:16:22.332Z,9.32
2023-05-11T06:18:51.461Z,8.80
2023-05-11T06:21:21.437Z,9.65
2023-05-11T06:23:50.247Z,8.45
2023-05-11T06:26:19.633Z,8.77
2023-05-11T06:28:49.194Z,7.72
2023-05-11T06:31:18.605Z,7.60
2023-05-11T06:33:47.443Z,7.10
2023-05-11T06:36:25.133Z,8.48
2023-05-11T06:38:53.845Z,5.53
2023-05-11T06:41:23.017Z,6.40
2023-05-11T06:43:51.840Z,6.10
2023-05-11T06:46:23.491Z,5.55
2023-05-11T06:48:51.976Z,6.93
2023-05-11T06:51:21.860Z,6.50
2023-05-11T06:53:52.279Z,6.10
2023-05-11T06:56:21.906Z,6.45
2023-05-11T06:58:50.611Z,6.53
2023-05-11T07:01:19.217Z,7.05
2023-05-11T07:03:49.065Z,6.15
2023-05-11T07:06:17.713Z,5.82
2023-05-11T07:08:46.452Z,6.35
2023-05-11T07:11:16.869Z,6.00
2023-05-11T07:13:45.983Z,8.18
2023-05-11T07:16:14.569Z,6.45
2023-05-11T07:18:43.564Z,5.00
2023-05-11T07:21:12.319Z,5.65
2023-05-11T07:23:40.859Z,5.35
2023-05-11T07:26:09.598Z,5.00
2023-05-11T07:28:40.506Z,5.30
2023-05-11T07:31:09.253Z,5.70
2023-05-11T07:33:39.571Z,5.22
2023-05-11T07:36:08.761Z,4.93
2023-05-11T07:38:37.726Z,5.45
2023-05-11T07:41:07.427Z,5.47
2023-05-11T07:43:37.383Z,6.03
2023-05-11T07:46:07.942Z,5.43
2023-05-11T07:48:36.764Z,4.70
2023-05-11T07:51:07.718Z,6.20
2023-05-11T07:53:36.431Z,5.95
2023-05-11T07:56:05.510Z,6.68
2023-05-11T07:58:34.325Z,5.80
2023-05-11T08:01:03.072Z,5.40
2023-05-11T08:03:33.313Z,4.70
2023-05-11T08:06:02.072Z,4.85
2023-05-11T08:08:31.414Z,5.75
2023-05-11T08:11:00.330Z,4.47
2023-05-11T08:13:29.046Z,6.25
2023-05-11T08:15:58.120Z,5.53
2023-05-11T08:18:26.792Z,5.05
2023-05-11T08:20:57.209Z,5.55
2023-05-11T08:23:25.846Z,5.78
2023-05-11T08:25:56.129Z,5.05
2023-05-11T08:28:24.583Z,10.30
2023-05-11T08:30:56.879Z,5.40
2023-05-11T08:33:37.548Z,4.93
2023-05-11T08:36:09.589Z,4.97
2023-05-11T08:38:38.244Z,5.00
2023-05-11T08:41:07.836Z,5.45
2023-05-11T08:43:37.141Z,5.97
2023-05-11T08:46:08.390Z,5.90
2023-05-11T08:48:38.679Z,5.97
2023-05-11T08:51:08.971Z,5.65
2023-05-11T08:53:37.561Z,5.63
2023-05-11T08:56:08.784Z,5.05
2023-05-11T08:58:38.007Z,5.70
2023-05-11T09:01:07.586Z,5.20
2023-05-11T09:03:37.618Z,5.72
2023-05-11T09:06:09.264Z,5.07
2023-05-11T09:08:38.951Z,4.93
2023-05-11T09:11:07.834Z,4.57
2023-05-11T09:13:36.335Z,5.57
2023-05-11T09:16:07.675Z,4.93
2023-05-11T09:18:48.366Z,5.05
2023-05-11T09:21:18.707Z,4.47
2023-05-11T09:23:49.530Z,4.60
2023-05-11T09:26:19.062Z,4.97
2023-05-11T09:29:02.354Z,4.30
2023-05-11T09:31:42.789Z,4.23
2023-05-11T09:34:14.023Z,3.50
2023-05-11T09:36:45.109Z,4.20
2023-05-11T09:39:16.661Z,3.73
2023-05-11T09:41:45.760Z,3.60
2023-05-11T09:44:15.431Z,3.63
2023-05-11T09:46:45.303Z,3.67
2023-05-11T09:49:14.945Z,4.03
2023-05-11T09:51:44.827Z,3.97
2023-05-11T09:54:20.881Z,3.30
2023-05-11T09:56:51.743Z,3.07
2023-05-11T09:59:38.336Z,3.17
2023-05-11T10:02:21.121Z,3.60
2023-05-11T10:04:49.866Z,3.40
2023-05-11T10:07:31.242Z,2.97
2023-05-11T10:10:01.729Z,2.33
2023-05-11T10:12:33.771Z,2.90
2023-05-11T10:15:04.956Z,3.20
2023-05-11T10:17:34.091Z,3.17
2023-05-11T10:20:04.273Z,3.07
2023-05-11T10:22:34.354Z,3.23
2023-05-11T10:25:03.400Z,3.03
2023-05-11T10:27:33.287Z,4.87
2023-05-11T10:30:03.987Z,3.10
2023-05-11T10:32:33.226Z,3.00
2023-05-11T10:35:01.958Z,3.37
2023-05-11T10:37:30.596Z,3.07
2023-05-11T10:40:00.689Z,3.20
2023-05-11T10:42:41.064Z,3.03
2023-05-11T10:45:21.573Z,3.07
2023-05-11T10:48:30.472Z,3.23
2023-05-11T10:51:22.782Z,2.63
2023-05-11T10:54:00.230Z,2.40
2023-05-11T10:56:43.893Z,2.40
2023-05-11T10:59:43.371Z,3.40
2023-05-11T11:02:12.318Z,3.70
2023-05-11T11:04:46.848Z,2.80
2023-05-11T11:07:18.334Z,3.23
2023-05-11T11:09:55.230Z,3.70
2023-05-11T11:12:27.007Z,2.80
2023-05-11T11:14:59.903Z,3.30
2023-05-11T11:17:31.787Z,3.63
2023-05-11T11:20:02.200Z,3.37
2023-05-11T11:22:48.061Z,3.07
2023-05-11T11:25:18.017Z,2.97
2023-05-11T11:27:59.438Z,2.73
2023-05-11T11:30:30.861Z,2.97
2023-05-11T11:33:33.775Z,3.50
2023-05-11T11:36:02.956Z,2.90
2023-05-11T11:38:34.027Z,2.97
2023-05-11T11:41:03.553Z,2.77
2023-05-11T11:43:46.163Z,3.23
2023-05-11T11:46:28.138Z,2.43
2023-05-11T11:49:08.605Z,2.10
2023-05-11T11:51:40.417Z,2.30
2023-05-11T11:54:10.032Z,2.00
2023-05-11T11:56:41.173Z,2.30
2023-05-11T11:59:14.054Z,2.03
2023-05-11T12:01:44.449Z,2.20
2023-05-11T12:04:52.346Z,2.27
2023-05-11T12:07:22.586Z,2.17
2023-05-11T12:09:53.103Z,2.00
2023-05-11T12:12:22.437Z,2.43
2023-05-11T12:14:52.480Z,2.07
2023-05-11T12:17:29.639Z,2.70
2023-05-11T12:20:13.803Z,2.50
2023-05-11T12:22:42.545Z,2.30
2023-05-11T12:25:12.632Z,2.33
2023-05-11T12:27:50.635Z,2.33
2023-05-11T12:30:24.658Z,2.47
2023-05-11T12:32:56.881Z,2.43
2023-05-11T12:35:27.638Z,2.23
2023-05-11T12:37:57.171Z,2.03
2023-05-11T12:40:26.194Z,2.20
2023-05-11T12:42:56.149Z,2.30
2023-05-11T12:45:27.010Z,2.47
2023-05-11T12:47:57.063Z,2.80
2023-05-11T12:50:25.988Z,2.50
2023-05-11T12:52:54.604Z,2.33
2023-05-11T12:55:30.272Z,2.43
2023-05-11T12:58:09.262Z,2.10
2023-05-11T13:00:39.359Z,2.17
2023-05-11T13:03:07.956Z,1.93
2023-05-11T13:05:36.930Z,2.57
2023-05-11T13:08:06.861Z,2.10
2023-05-11T13:10:35.374Z,2.13
2023-05-11T13:13:03.847Z,2.20
2023-05-11T13:15:32.679Z,1.97
2023-05-11T13:18:03.917Z,2.00
2023-05-11T13:20:33.839Z,1.97
2023-05-11T13:23:07.032Z,2.40
2023-05-11T13:25:36.333Z,2.00
2023-05-11T13:28:05.186Z,2.30
2023-05-11T13:30:35.155Z,2.13
2023-05-11T13:33:06.056Z,1.93
2023-05-11T13:35:34.797Z,1.73
2023-05-11T13:38:03.336Z,1.97
2023-05-11T13:40:31.870Z,2.27
2023-05-11T13:43:00.661Z,2.00
2023-05-11T13:45:29.875Z,2.20
2023-05-11T13:47:58.497Z,2.20
2023-05-11T13:50:28.874Z,2.10
2023-05-11T13:52:57.641Z,2.03
2023-05-11T13:55:26.236Z,2.40
2023-05-11T13:57:55.288Z,1.67
2023-05-11T14:00:24.250Z,2.03
2023-05-11T14:02:53.690Z,2.20
2023-05-11T14:05:22.659Z,2.20
2023-05-11T14:07:52.885Z,2.10
2023-05-11T14:10:21.616Z,2.13
2023-05-11T14:12:50.606Z,1.60
2023-05-11T14:15:19.480Z,2.00
2023-05-11T14:17:48.830Z,2.17
2023-05-11T14:20:17.636Z,2.20
2023-05-11T14:22:46.332Z,2.13
2023-05-11T14:25:16.512Z,2.13
2023-05-11T14:27:45.521Z,2.20
2023-05-11T14:30:14.739Z,2.20
2023-05-11T14:32:43.534Z,2.20
2023-05-11T14:35:11.999Z,2.10
2023-05-11T14:37:40.667Z,1.90
2023-05-11T14:40:10.297Z,2.27
2023-05-11T14:42:40.131Z,2.00
2023-05-11T14:45:09.809Z,1.80
2023-05-11T14:47:38.564Z,2.23
2023-05-11T14:50:08.411Z,2.60
2023-05-11T14:52:37.092Z,2.20
2023-05-11T14:55:06.441Z,2.40
2023-05-11T14:57:35.012Z,2.27
2023-05-11T15:00:06.212Z,2.37
2023-05-11T15:02:34.977Z,2.23
2023-05-11T15:05:03.579Z,2.20
2023-05-11T15:07:32.283Z,2.10
2023-05-11T15:10:01.834Z,2.30
2023-05-11T15:12:30.764Z,2.23
2023-05-11T15:14:59.364Z,2.40
2023-05-11T15:17:29.567Z,2.30
2023-05-11T15:19:58.143Z,2.10
2023-05-11T15:22:26.597Z,2.13
2023-05-11T15:24:56.049Z,2.20
2023-05-11T15:27:24.818Z,2.57
2023-05-11T15:29:53.341Z,2.40
2023-05-11T15:32:22.151Z,2.30
2023-05-11T15:34:59.881Z,2.27
2023-05-11T15:37:28.870Z,1.97
2023-05-11T15:39:57.571Z,2.70
2023-05-11T15:42:26.596Z,2.57
2023-05-11T15:44:55.253Z,2.60
2023-05-11T15:47:23.829Z,2.30
2023-05-11T15:49:53.946Z,2.87
2023-05-11T15:52:22.755Z,2.70
2023-05-11T15:54:51.221Z,2.47
2023-05-11T15:57:20.089Z,3.10
2023-05-11T15:59:48.906Z,2.70
2023-05-11T16:02:17.752Z,2.43
2023-05-11T16:04:46.298Z,2.67
2023-05-11T16:07:16.337Z,3.07
2023-05-11T16:09:44.981Z,2.80
2023-05-11T16:12:13.553Z,2.33
2023-05-11T16:14:42.240Z,2.60
2023-05-11T16:17:10.964Z,3.00
2023-05-11T16:19:39.533Z,2.63
2023-05-11T16:22:08.302Z,2.60
2023-05-11T16:24:38.430Z,2.80
2023-05-11T16:27:07.187Z,2.57
2023-05-11T16:29:35.790Z,2.73
2023-05-11T16:32:05.051Z,2.73
2023-05-11T16:34:40.943Z,3.00
2023-05-11T16:37:10.299Z,3.07
2023-05-11T16:39:40.417Z,3.30
2023-05-11T16:42:09.092Z,2.80
2023-05-11T16:44:37.861Z,2.70
2023-05-11T16:47:06.769Z,2.90
2023-05-11T16:49:35.554Z,2.67
2023-05-11T16:52:04.006Z,2.70
2023-05-11T16:54:32.619Z,2.87
2023-05-11T16:57:02.610Z,2.70
2023-05-11T16:59:33.077Z,2.77
2023-05-11T17:02:02.220Z,2.90
2023-05-11T17:04:30.723Z,2.77
2023-05-11T17:06:59.367Z,2.50
2023-05-11T17:09:28.079Z,2.77
2023-05-11T17:11:57.550Z,2.63
2023-05-11T17:14:27.689Z,2.50
2023-05-11T17:16:56.352Z,2.90
2023-05-11T17:19:24.998Z,3.00
2023-05-11T17:21:53.677Z,3.10
2023-05-11T17:24:22.794Z,2.83
2023-05-11T17:26:51.460Z,2.50
2023-05-11T17:29:20.345Z,2.47
2023-05-11T17:31:51.867Z,2.87
2023-05-11T17:34:22.338Z,2.80
2023-05-11T17:36:53.327Z,3.20
2023-05-11T17:39:21.872Z,2.80
2023-05-11T17:41:50.624Z,3.07
2023-05-11T17:44:19.217Z,2.47
2023-05-11T17:46:49.414Z,2.93
2023-05-11T17:49:17.948Z,3.10
2023-05-11T17:51:46.550Z,3.50
2023-05-11T17:54:15.261Z,3.07
2023-05-11T17:56:44.113Z,2.70
2023-05-11T17:59:12.732Z,3.20
2023-05-11T18:01:42.593Z,2.87
2023-05-11T18:04:12.608Z,2.70
2023-05-11T18:06:41.189Z,3.17
2023-05-11T18:09:12.589Z,2.97
2023-05-11T18:11:41.364Z,2.90
2023-05-11T18:14:10.750Z,2.70
2023-05-11T18:16:39.487Z,3.13
2023-05-11T18:19:08.101Z,3.00
2023-05-11T18:21:38.488Z,2.67
2023-05-11T18:24:09.571Z,3.30
2023-05-11T18:26:38.299Z,2.80
2023-05-11T18:29:07.416Z,2.80
2023-05-11T18:31:36.416Z,3.10
2023-05-11T18:34:05.942Z,3.47
2023-05-11T18:36:34.670Z,3.10
2023-05-11T18:39:05.325Z,3.20
2023-05-11T18:41:34.789Z,3.43
2023-05-11T18:44:03.489Z,3.13
2023-05-11T18:46:32.316Z,3.40
2023-05-11T18:49:01.173Z,3.30
2023-05-11T18:51:30.152Z,3.37
2023-05-11T18:53:58.869Z,3.73
2023-05-11T18:56:29.858Z,3.43
2023-05-11T18:58:58.480Z,3.40
2023-05-11T19:01:39.822Z,3.20
2023-05-11T19:04:19.705Z,3.33
2023-05-11T19:06:48.884Z,3.63
2023-05-11T19:09:17.619Z,3.50
2023-05-11T19:11:47.494Z,3.47
2023-05-11T19:14:16.225Z,3.67
2023-05-11T19:16:44.910Z,3.27
2023-05-11T19:19:13.627Z,3.60
2023-05-11T19:21:43.480Z,4.00
2023-05-11T19:24:12.264Z,3.73
2023-05-11T19:26:42.712Z,3.53
2023-05-11T19:29:17.765Z,3.77
2023-05-11T19:31:47.058Z,3.87
2023-05-11T19:34:15.932Z,4.07
2023-05-11T19:36:44.762Z,3.80
2023-05-11T19:39:13.405Z,3.20
2023-05-11T19:41:42.018Z,3.57
2023-05-11T19:44:10.844Z,3.60
2023-05-11T19:46:46.401Z,4.20
2023-05-11T19:49:16.400Z,3.80
2023-05-11T19:51:45.201Z,3.83
2023-05-11T19:54:14.178Z,4.13
2023-05-11T19:56:42.958Z,3.80
2023-05-11T19:59:11.699Z,3.93
2023-05-11T20:01:41.413Z,3.67
2023-05-11T20:04:12.657Z,3.80
2023-05-11T20:06:41.324Z,3.57
2023-05-11T20:09:09.792Z,4.37
2023-05-11T20:11:38.152Z,4.10
2023-05-11T20:14:06.642Z,3.97
2023-05-11T20:16:35.181Z,4.10
2023-05-11T20:19:05.482Z,4.30
2023-05-11T20:21:35.915Z,4.07
2023-05-11T20:24:04.552Z,4.13
2023-05-11T20:26:33.145Z,3.43
2023-05-11T20:29:01.957Z,3.93
2023-05-11T20:31:32.796Z,4.10
2023-05-11T20:36:34.616Z,4.00
2023-05-11T20:39:03.152Z,3.80
2023-05-11T20:41:31.744Z,3.77
2023-05-11T20:44:00.722Z,3.93
2023-05-11T20:46:29.400Z,3.60
2023-05-11T20:48:58.700Z,3.33
2023-05-11T20:51:27.396Z,3.60
2023-05-11T20:53:58.847Z,3.20
2023-05-11T20:56:27.547Z,4.17
2023-05-11T20:58:56.349Z,3.50
2023-05-11T21:01:25.066Z,3.83
2023-05-11T21:03:53.711Z,3.30
2023-05-11T21:06:22.099Z,3.40
2023-05-11T21:08:51.110Z,3.93
2023-05-11T21:11:22.312Z,3.23
2023-05-11T21:13:50.846Z,3.53
2023-05-11T21:16:19.688Z,3.23
2023-05-11T21:18:48.377Z,3.87
2023-05-11T21:21:16.995Z,3.63
2023-05-11T21:23:45.532Z,3.60
2023-05-11T21:26:14.562Z,3.87
2023-05-11T21:28:44.439Z,3.20
2023-05-11T21:31:12.972Z,3.33
2023-05-11T21:33:41.506Z,3.63
2023-05-11T21:36:10.306Z,3.83
2023-05-11T21:38:38.967Z,3.70
2023-05-11T21:41:07.978Z,3.60
2023-05-11T21:43:37.092Z,3.50
2023-05-11T21:46:07.006Z,3.70
2023-05-11T21:48:35.912Z,3.70
2023-05-11T21:51:04.593Z,3.77
2023-05-11T21:53:33.064Z,4.20
2023-05-11T21:56:01.726Z,3.93
2023-05-11T21:58:30.361Z,3.77
2023-05-11T22:00:58.909Z,3.47
2023-05-11T22:03:31.665Z,3.70
2023-05-11T22:06:00.523Z,3.80
2023-05-11T22:08:29.002Z,3.57
2023-05-11T22:10:57.351Z,3.47
2023-05-11T22:13:26.244Z,3.70
2023-05-11T22:15:55.074Z,3.77
2023-05-11T22:18:23.668Z,3.77
2023-05-11T22:20:53.717Z,3.40
2023-05-11T22:23:22.307Z,4.17
2023-05-11T22:25:50.936Z,3.70
2023-05-11T22:28:19.672Z,3.67
2023-05-11T22:30:48.334Z,3.93
2023-05-11T22:33:17.153Z,3.77
2023-05-11T22:35:45.738Z,3.90
2023-05-11T22:38:15.798Z,4.53
2023-05-11T22:40:44.555Z,3.67
2023-05-11T22:43:13.043Z,3.83
2023-05-11T22:45:41.940Z,3.83
2023-05-11T22:48:10.441Z,4.40
2023-05-11T22:50:39.211Z,3.53
2023-05-11T22:53:07.899Z,4.00
2023-05-11T22:55:37.989Z,3.83
2023-05-11T22:58:06.440Z,4.10
2023-05-11T23:00:35.361Z,4.00
2023-05-11T23:03:04.181Z,3.80
2023-05-11T23:05:33.029Z,4.07
2023-05-11T23:08:01.610Z,4.10
2023-05-11T23:10:30.446Z,3.73
2023-05-11T23:13:00.345Z,4.13
2023-05-11T23:15:28.902Z,3.47
2023-05-11T23:17:57.629Z,3.90
2023-05-11T23:20:26.297Z,3.90
2023-05-11T23:22:54.881Z,3.80
2023-05-11T23:25:25.892Z,4.03
2023-05-11T23:27:55.209Z,3.63
2023-05-11T23:30:25.331Z,4.07
2023-05-11T23:32:53.921Z,3.90
2023-05-11T23:35:22.320Z,3.87
2023-05-11T23:37:51.075Z,3.97
2023-05-11T23:40:19.814Z,4.13
2023-05-11T23:42:48.467Z,4.40
2023-05-11T23:45:17.022Z,4.13
2023-05-11T23:47:47.156Z,3.93
2023-05-11T23:50:15.785Z,3.60
2023-05-11T23:52:44.220Z,3.93
2023-05-11T23:55:13.278Z,4.07
2023-05-11T23:57:42.118Z,3.80
